createdAt,value
2018-12-17T00:01:40.310Z,28.27
2018-12-17T00:04:08.486Z,26.17
2018-12-17T00:06:36.664Z,25.73
2018-12-17T00:09:06.769Z,31.90
2018-12-17T00:11:35.279Z,32.70
2018-12-17T00:14:03.459Z,30.67
2018-12-17T00:16:31.817Z,32.67
2018-12-17T00:18:59.981Z,31.97
2018-12-17T00:21:28.159Z,28.33
2018-12-17T00:23:56.512Z,28.20
2018-12-17T00:26:24.689Z,33.00
2018-12-17T00:28:52.900Z,33.63
2018-12-17T00:31:21.116Z,36.77
2018-12-17T00:33:49.319Z,38.30
2018-12-17T00:36:17.502Z,44.73
2018-12-17T00:38:45.702Z,40.10
2018-12-17T00:41:13.876Z,45.00
2018-12-17T00:43:42.184Z,43.50
2018-12-17T00:46:10.390Z,36.33
2018-12-17T00:48:38.728Z,35.57
2018-12-17T00:51:06.908Z,39.40
2018-12-17T00:53:35.124Z,36.23
2018-12-17T00:56:03.324Z,37.90
2018-12-17T00:58:31.554Z,32.50
2018-12-17T01:00:59.767Z,34.00
2018-12-17T01:03:27.951Z,40.53
2018-12-17T01:05:56.128Z,33.43
2018-12-17T01:08:24.379Z,30.90
2018-12-17T01:10:52.567Z,31.00
2018-12-17T01:13:20.765Z,37.20
2018-12-17T01:15:48.966Z,26.37
2018-12-17T01:18:17.225Z,33.33
2018-12-17T01:20:45.397Z,29.40
2018-12-17T01:23:13.772Z,30.57
2018-12-17T01:25:41.955Z,29.77
2018-12-17T01:28:10.129Z,23.80
2018-12-17T01:30:38.332Z,34.53
2018-12-17T01:33:06.522Z,43.00
2018-12-17T01:35:34.701Z,27.57
2018-12-17T01:38:03.036Z,34.17
2018-12-17T01:40:31.227Z,25.17
2018-12-17T01:42:59.408Z,27.63
2018-12-17T01:45:27.603Z,35.47
2018-12-17T01:47:55.800Z,28.03
2018-12-17T01:50:23.982Z,29.83
2018-12-17T01:52:52.211Z,28.13
2018-12-17T01:55:20.396Z,29.00
2018-12-17T01:57:48.657Z,26.23
2018-12-17T02:00:16.855Z,34.23
2018-12-17T02:02:45.050Z,24.97
2018-12-17T02:05:13.381Z,28.20
2018-12-17T02:07:41.807Z,28.43
2018-12-17T02:10:09.997Z,22.07
2018-12-17T02:12:38.176Z,28.23
2018-12-17T02:15:06.381Z,31.10
2018-12-17T02:17:34.560Z,32.60
2018-12-17T02:20:03.304Z,34.97
2018-12-17T02:22:31.495Z,27.90
2018-12-17T02:24:59.670Z,36.03
2018-12-17T02:27:27.851Z,29.97
2018-12-17T02:29:56.056Z,27.33
2018-12-17T02:32:24.245Z,35.37
2018-12-17T02:34:52.451Z,35.67
2018-12-17T02:37:20.652Z,34.00
2018-12-17T02:39:48.845Z,28.20
2018-12-17T02:42:17.046Z,30.80
2018-12-17T02:44:45.257Z,25.53
2018-12-17T02:47:13.432Z,26.63
2018-12-17T02:49:41.599Z,34.13
2018-12-17T02:52:09.812Z,22.63
2018-12-17T02:54:38.185Z,30.00
2018-12-17T02:57:06.446Z,27.17
2018-12-17T02:59:34.660Z,33.77
2018-12-17T03:02:02.844Z,25.20
2018-12-17T03:04:31.022Z,25.07
2018-12-17T03:06:59.228Z,36.70
2018-12-17T03:09:27.404Z,34.73
2018-12-17T03:11:55.595Z,28.90
2018-12-17T03:14:23.866Z,28.83
2018-12-17T03:16:52.057Z,26.80
2018-12-17T03:19:20.242Z,31.37
2018-12-17T03:21:48.571Z,30.20
2018-12-17T03:24:17.140Z,35.50
2018-12-17T03:26:45.415Z,28.00
2018-12-17T03:29:13.616Z,30.30
2018-12-17T03:31:42.127Z,27.23
2018-12-17T03:34:10.319Z,28.30
2018-12-17T03:36:38.537Z,30.27
2018-12-17T03:39:06.845Z,33.87
2018-12-17T03:41:35.032Z,30.47
2018-12-17T03:44:03.246Z,25.13
2018-12-17T03:46:31.434Z,28.37
2018-12-17T03:48:59.612Z,28.87
2018-12-17T03:51:27.825Z,32.73
2018-12-17T03:53:56.005Z,28.77
2018-12-17T03:56:24.190Z,34.37
2018-12-17T03:58:59.035Z,27.80
2018-12-17T04:01:22.781Z,35.60
2018-12-17T04:03:51.152Z,29.50
2018-12-17T04:06:19.365Z,37.13
2018-12-17T04:08:47.694Z,31.07
2018-12-17T04:11:15.907Z,31.63
2018-12-17T04:13:44.229Z,31.13
2018-12-17T04:16:12.412Z,28.23
2018-12-17T04:18:40.818Z,31.63
2018-12-17T04:21:09.029Z,23.50
2018-12-17T04:23:37.219Z,30.53
2018-12-17T04:26:05.412Z,33.33
2018-12-17T04:28:33.617Z,24.40
2018-12-17T04:31:01.798Z,25.80
2018-12-17T04:33:30.140Z,27.00
2018-12-17T04:35:58.341Z,27.07
2018-12-17T04:38:26.521Z,25.90
2018-12-17T04:40:54.752Z,28.50
2018-12-17T04:43:22.945Z,23.13
2018-12-17T04:45:51.141Z,25.83
2018-12-17T04:48:19.318Z,31.00
2018-12-17T04:50:47.541Z,27.10
2018-12-17T04:53:15.714Z,23.00
2018-12-17T04:55:43.910Z,22.33
2018-12-17T04:58:12.113Z,21.97
2018-12-17T05:00:40.465Z,20.60
2018-12-17T05:03:08.638Z,22.70
2018-12-17T05:05:36.855Z,17.73
2018-12-17T05:08:05.282Z,22.20
2018-12-17T05:10:33.471Z,22.93
2018-12-17T05:13:01.668Z,23.00
2018-12-17T05:15:29.960Z,26.20
2018-12-17T05:17:58.169Z,22.47
2018-12-17T05:20:26.382Z,19.90
2018-12-17T05:23:00.551Z,21.67
2018-12-17T05:25:28.760Z,19.23
2018-12-17T05:27:56.941Z,19.93
2018-12-17T05:30:25.168Z,21.03
2018-12-17T05:32:53.380Z,22.33
2018-12-17T05:35:21.564Z,27.57
2018-12-17T05:37:49.748Z,23.87
2018-12-17T05:40:18.057Z,24.97
2018-12-17T05:42:46.493Z,22.93
2018-12-17T05:45:14.669Z,21.30
2018-12-17T05:47:42.881Z,21.03
2018-12-17T05:50:11.089Z,24.47
2018-12-17T05:52:39.277Z,23.77
2018-12-17T05:55:07.504Z,21.60
2018-12-17T05:57:35.692Z,22.30
2018-12-17T06:00:06.173Z,19.73
2018-12-17T06:02:34.403Z,22.87
2018-12-17T06:05:02.584Z,21.07
2018-12-17T06:07:30.760Z,25.43
2018-12-17T06:09:59.176Z,21.90
2018-12-17T06:12:27.353Z,20.63
2018-12-17T06:14:55.529Z,18.30
2018-12-17T06:17:23.758Z,24.77
2018-12-17T06:19:51.942Z,26.60
2018-12-17T06:22:20.254Z,24.20
2018-12-17T06:24:48.466Z,19.90
2018-12-17T06:27:16.737Z,17.70
2018-12-17T06:29:44.922Z,23.30
2018-12-17T06:32:13.130Z,23.97
2018-12-17T06:34:41.313Z,22.03
2018-12-17T06:37:09.490Z,18.33
2018-12-17T06:39:37.720Z,21.40
2018-12-17T06:42:05.904Z,18.93
2018-12-17T06:44:34.079Z,25.43
2018-12-17T06:47:02.384Z,28.47
2018-12-17T06:49:30.626Z,20.83
2018-12-17T06:51:59.134Z,18.80
2018-12-17T06:54:27.774Z,21.10
2018-12-17T06:56:55.961Z,23.20
2018-12-17T06:59:24.137Z,28.13
2018-12-17T07:01:52.500Z,23.80
2018-12-17T07:04:20.681Z,26.47
2018-12-17T07:06:48.863Z,24.10
2018-12-17T07:09:17.159Z,27.63
2018-12-17T07:11:45.580Z,23.80
2018-12-17T07:14:13.765Z,29.57
2018-12-17T07:16:41.961Z,25.37
2018-12-17T07:19:10.133Z,22.80
2018-12-17T07:21:38.334Z,22.03
2018-12-17T07:24:06.583Z,14.67
2018-12-17T07:26:34.771Z,21.47
2018-12-17T07:29:02.953Z,30.33
2018-12-17T07:31:31.148Z,27.20
2018-12-17T07:33:59.397Z,32.27
2018-12-17T07:36:27.620Z,32.67
2018-12-17T07:38:55.893Z,32.60
2018-12-17T07:41:24.087Z,31.43
2018-12-17T07:43:52.270Z,28.80
2018-12-17T07:46:20.594Z,33.43
2018-12-17T07:48:48.858Z,27.03
2018-12-17T07:51:17.033Z,23.03
2018-12-17T07:53:45.221Z,18.70
2018-12-17T07:56:13.448Z,21.17
2018-12-17T07:58:41.626Z,19.87
2018-12-17T08:01:09.831Z,22.93
2018-12-17T08:03:38.026Z,32.13
2018-12-17T08:06:06.225Z,21.83
2018-12-17T08:08:35.555Z,22.00
2018-12-17T08:11:04.252Z,18.07
2018-12-17T08:13:32.748Z,20.70
2018-12-17T08:16:00.961Z,21.60
2018-12-17T08:18:29.149Z,26.70
2018-12-17T08:20:57.325Z,26.83
2018-12-17T08:23:25.554Z,23.80
2018-12-17T08:25:53.733Z,29.80
2018-12-17T08:30:56.749Z,19.13
2018-12-17T08:33:24.923Z,31.33
2018-12-17T08:35:53.153Z,42.37
2018-12-17T08:38:21.362Z,48.10
2018-12-17T08:40:49.756Z,46.20
2018-12-17T08:43:18.052Z,43.63
2018-12-17T08:45:46.252Z,62.20
2018-12-17T08:48:14.429Z,57.03
2018-12-17T08:50:42.600Z,51.73
2018-12-17T08:53:10.800Z,59.53
2018-12-17T08:55:38.976Z,50.97
2018-12-17T08:58:07.325Z,56.57
2018-12-17T09:00:35.596Z,53.10
2018-12-17T09:03:03.773Z,58.17
2018-12-17T09:05:31.948Z,51.77
2018-12-17T09:08:00.151Z,48.37
2018-12-17T09:10:28.334Z,48.57
2018-12-17T09:12:56.515Z,56.07
2018-12-17T09:15:24.728Z,56.50
2018-12-17T09:17:52.925Z,61.10
2018-12-17T09:20:21.572Z,56.87
2018-12-17T09:22:49.775Z,58.90
2018-12-17T09:25:17.998Z,51.23
2018-12-17T09:27:46.178Z,45.43
2018-12-17T09:30:18.302Z,56.33
2018-12-17T09:32:44.836Z,64.93
2018-12-17T09:35:13.424Z,53.07
2018-12-17T09:37:41.722Z,48.00
2018-12-17T09:40:09.963Z,49.23
2018-12-17T09:42:38.170Z,51.97
2018-12-17T09:45:07.155Z,52.43
2018-12-17T09:47:35.332Z,43.20
2018-12-17T09:50:04.767Z,41.33
2018-12-17T09:52:32.981Z,39.87
2018-12-17T09:55:01.172Z,48.23
2018-12-17T09:57:29.355Z,53.13
2018-12-17T09:59:57.544Z,45.17
2018-12-17T10:02:25.779Z,40.90
2018-12-17T10:04:53.962Z,52.90
2018-12-17T10:07:22.164Z,41.90
2018-12-17T10:09:50.366Z,54.60
2018-12-17T10:12:18.544Z,44.10
2018-12-17T10:14:46.736Z,40.37
2018-12-17T10:17:14.905Z,48.07
2018-12-17T10:19:43.095Z,42.57
2018-12-17T10:22:11.664Z,42.10
2018-12-17T10:24:39.913Z,60.07
2018-12-17T10:27:08.128Z,51.27
2018-12-17T10:29:37.032Z,49.60
2018-12-17T10:32:05.232Z,37.77
2018-12-17T10:34:33.818Z,36.67
2018-12-17T10:37:02.122Z,39.73
2018-12-17T10:39:30.334Z,40.60
2018-12-17T10:41:58.532Z,37.58
2018-12-17T10:44:28.069Z,39.30
2018-12-17T10:46:56.536Z,37.57
2018-12-17T10:49:24.727Z,36.40
2018-12-17T10:51:53.076Z,37.33
2018-12-17T10:54:21.267Z,35.17
2018-12-17T10:56:49.459Z,32.23
2018-12-17T10:59:17.665Z,37.50
2018-12-17T11:01:55.364Z,37.13
2018-12-17T11:04:24.711Z,33.73
2018-12-17T11:06:52.949Z,23.00
2018-12-17T11:09:21.123Z,17.93
2018-12-17T11:11:49.425Z,18.57
2018-12-17T11:14:17.648Z,18.60
2018-12-17T11:16:45.818Z,20.10
2018-12-17T11:19:14.122Z,21.53
2018-12-17T11:21:42.293Z,19.60
2018-12-17T11:24:10.592Z,20.73
2018-12-17T11:26:38.882Z,19.37
2018-12-17T11:29:07.048Z,16.83
2018-12-17T11:31:35.308Z,16.77
2018-12-17T11:34:03.512Z,23.77
2018-12-17T11:36:31.687Z,20.07
2018-12-17T11:39:00.793Z,17.43
2018-12-17T11:41:28.976Z,15.60
2018-12-17T11:43:57.263Z,14.40
2018-12-17T11:46:25.431Z,22.20
2018-12-17T11:48:53.646Z,19.20
2018-12-17T11:51:21.894Z,18.10
2018-12-17T11:53:50.149Z,29.37
2018-12-17T11:56:18.340Z,19.17
2018-12-17T11:58:46.723Z,16.67
2018-12-17T12:01:14.889Z,22.07
2018-12-17T12:03:44.573Z,16.87
2018-12-17T12:06:14.290Z,16.80
2018-12-17T12:08:42.736Z,17.03
2018-12-17T12:11:10.954Z,15.10
2018-12-17T12:13:39.127Z,21.97
2018-12-17T12:16:07.289Z,12.33
2018-12-17T12:18:35.622Z,15.23
2018-12-17T12:21:03.790Z,14.00
2018-12-17T12:23:31.965Z,13.20
2018-12-17T12:26:00.153Z,13.90
2018-12-17T12:28:28.319Z,20.77
2018-12-17T12:31:00.486Z,14.87
2018-12-17T12:33:26.961Z,19.80
2018-12-17T12:35:55.151Z,17.73
2018-12-17T12:38:23.319Z,19.43
2018-12-17T12:40:51.500Z,16.97
2018-12-17T12:43:19.739Z,14.60
2018-12-17T12:45:47.924Z,20.43
2018-12-17T12:48:16.105Z,16.30
2018-12-17T12:50:44.288Z,18.07
2018-12-17T12:53:12.447Z,18.10
2018-12-17T12:55:40.657Z,16.03
2018-12-17T12:58:08.830Z,13.20
2018-12-17T13:00:37.185Z,36.60
2018-12-17T13:03:05.388Z,37.53
2018-12-17T13:05:33.562Z,37.90
2018-12-17T13:08:01.731Z,38.93
2018-12-17T13:10:29.957Z,39.23
2018-12-17T13:12:58.134Z,39.70
2018-12-17T13:15:26.302Z,34.03
2018-12-17T13:17:54.494Z,40.33
2018-12-17T13:20:22.676Z,37.07
2018-12-17T13:22:50.882Z,35.80
2018-12-17T13:25:21.090Z,37.13
2018-12-17T13:27:49.253Z,42.87
2018-12-17T13:30:17.599Z,33.53
2018-12-17T13:32:45.783Z,34.03
2018-12-17T13:35:13.955Z,34.67
2018-12-17T13:37:42.133Z,36.27
2018-12-17T13:40:10.329Z,54.50
2018-12-17T13:42:38.503Z,36.90
2018-12-17T13:45:06.818Z,39.00
2018-12-17T13:47:35.028Z,44.50
2018-12-17T13:53:10.685Z,33.53
2018-12-17T13:55:38.862Z,33.00
2018-12-17T13:58:07.046Z,29.67
2018-12-17T14:00:35.352Z,37.70
2018-12-17T14:03:03.532Z,36.10
2018-12-17T14:05:31.691Z,35.97
2018-12-17T14:07:59.909Z,36.10
2018-12-17T14:10:33.437Z,34.23
2018-12-17T14:13:01.647Z,38.70
2018-12-17T14:15:31.869Z,37.83
2018-12-17T14:18:02.105Z,38.90
2018-12-17T14:20:35.773Z,44.10
2018-12-17T14:23:04.181Z,38.17
2018-12-17T14:25:32.384Z,33.30
2018-12-17T14:28:00.559Z,44.80
2018-12-17T14:30:29.516Z,36.13
2018-12-17T14:32:57.691Z,36.40
2018-12-17T14:35:25.861Z,41.43
2018-12-17T14:37:59.586Z,42.80
2018-12-17T14:40:27.753Z,41.10
2018-12-17T14:42:55.965Z,40.00
2018-12-17T14:45:24.171Z,39.00
2018-12-17T14:47:52.927Z,35.43
2018-12-17T14:50:21.256Z,35.50
2018-12-17T14:52:49.476Z,39.27
2018-12-17T14:55:17.672Z,34.87
2018-12-17T14:57:45.852Z,37.70
2018-12-17T15:00:14.180Z,41.87
2018-12-17T15:02:42.552Z,49.10
2018-12-17T15:05:10.745Z,41.80
2018-12-17T15:07:39.096Z,33.90
2018-12-17T15:10:07.300Z,29.60
2018-12-17T15:12:35.476Z,26.13
2018-12-17T15:15:06.666Z,27.47
2018-12-17T15:17:34.830Z,29.93
2018-12-17T15:20:03.139Z,23.23
2018-12-17T15:22:31.475Z,21.87
2018-12-17T15:25:00.351Z,22.90
2018-12-17T15:27:28.539Z,23.63
2018-12-17T15:29:56.868Z,23.67
2018-12-17T15:32:25.198Z,36.20
2018-12-17T15:34:53.370Z,25.50
2018-12-17T15:37:21.571Z,55.53
2018-12-17T15:39:49.741Z,27.30
2018-12-17T15:42:17.930Z,24.47
2018-12-17T15:44:46.125Z,31.23
2018-12-17T15:47:14.411Z,29.23
2018-12-17T15:49:42.571Z,24.67
2018-12-17T15:52:10.771Z,26.77
2018-12-17T15:54:38.952Z,27.30
2018-12-17T15:57:07.137Z,35.00
2018-12-17T15:59:35.401Z,34.03
2018-12-17T16:02:03.648Z,26.10
2018-12-17T16:04:31.814Z,29.57
2018-12-17T16:07:00.044Z,24.50
2018-12-17T16:09:28.240Z,29.47
2018-12-17T16:11:57.014Z,23.73
2018-12-17T16:14:25.921Z,25.93
2018-12-17T16:16:54.112Z,30.20
2018-12-17T16:19:22.580Z,37.77
2018-12-17T16:21:50.990Z,27.70
2018-12-17T16:24:19.647Z,27.60
2018-12-17T16:26:48.751Z,29.50
2018-12-17T16:29:17.691Z,26.00
2018-12-17T16:31:45.945Z,31.70
2018-12-17T16:34:14.161Z,29.47
2018-12-17T16:36:43.308Z,34.30
2018-12-17T16:39:11.483Z,44.00
2018-12-17T16:41:39.665Z,47.50
2018-12-17T16:44:07.854Z,52.47
2018-12-17T16:46:36.030Z,50.30
2018-12-17T16:49:04.201Z,62.97
2018-12-17T16:51:32.524Z,54.17
2018-12-17T16:54:00.695Z,51.40
2018-12-17T16:56:33.920Z,46.77
2018-12-17T16:59:02.209Z,43.63
2018-12-17T17:01:30.575Z,53.13
2018-12-17T17:03:58.785Z,53.47
2018-12-17T17:06:26.952Z,53.27
2018-12-17T17:08:55.150Z,45.23
2018-12-17T17:11:23.351Z,48.07
2018-12-17T17:13:51.655Z,53.53
2018-12-17T17:16:19.830Z,48.93
2018-12-17T17:18:48.019Z,45.20
2018-12-17T17:21:16.402Z,50.43
2018-12-17T17:23:44.580Z,43.23
2018-12-17T17:26:13.626Z,46.80
2018-12-17T17:28:41.808Z,44.87
2018-12-17T17:31:10.099Z,43.07
2018-12-17T17:33:38.313Z,46.43
2018-12-17T17:36:06.581Z,53.50
2018-12-17T17:38:34.757Z,59.00
2018-12-17T17:41:03.102Z,42.50
2018-12-17T17:43:31.386Z,48.90
2018-12-17T17:45:59.570Z,52.30
2018-12-17T17:48:27.765Z,47.43
2018-12-17T17:50:55.947Z,41.47
2018-12-17T17:53:24.128Z,40.30
2018-12-17T17:55:52.359Z,51.80
2018-12-17T17:58:20.534Z,47.30
2018-12-17T18:00:48.713Z,42.20
2018-12-17T18:03:17.089Z,47.47
2018-12-17T18:05:45.294Z,49.00
2018-12-17T18:08:13.593Z,50.20
2018-12-17T18:10:41.857Z,37.90
2018-12-17T18:13:10.050Z,40.33
2018-12-17T18:15:40.005Z,47.60
2018-12-17T18:18:08.603Z,40.47
2018-12-17T18:20:36.793Z,57.43
2018-12-17T18:23:04.980Z,41.00
2018-12-17T18:25:33.241Z,38.40
2018-12-17T18:28:01.423Z,45.60
2018-12-17T18:30:29.616Z,47.67
2018-12-17T18:32:57.953Z,44.53
2018-12-17T18:35:26.276Z,51.47
2018-12-17T18:37:54.808Z,49.47
2018-12-17T18:40:23.171Z,55.00
2018-12-17T18:42:51.419Z,47.67
2018-12-17T18:45:19.692Z,46.30
2018-12-17T18:47:47.913Z,50.27
2018-12-17T18:50:16.143Z,48.60
2018-12-17T18:52:44.465Z,48.40
2018-12-17T18:55:12.670Z,41.83
2018-12-17T18:57:40.899Z,39.90
2018-12-17T19:00:10.760Z,44.30
2018-12-17T19:02:39.044Z,39.53
2018-12-17T19:05:07.258Z,43.10
2018-12-17T19:07:35.456Z,44.27
2018-12-17T19:10:05.775Z,42.33
2018-12-17T19:12:33.961Z,44.47
2018-12-17T19:15:02.157Z,46.43
2018-12-17T19:17:30.375Z,43.50
2018-12-17T19:19:58.554Z,43.70
2018-12-17T19:22:26.735Z,44.80
2018-12-17T19:24:55.076Z,38.40
2018-12-17T19:27:23.411Z,49.17
2018-12-17T19:29:51.598Z,42.17
2018-12-17T19:32:20.009Z,49.10
2018-12-17T19:34:54.131Z,53.40
2018-12-17T19:37:22.348Z,46.60
2018-12-17T19:39:50.665Z,53.27
2018-12-17T19:42:18.860Z,48.50
2018-12-17T19:44:47.079Z,43.80
2018-12-17T19:47:15.307Z,50.40
2018-12-17T19:49:43.518Z,43.43
2018-12-17T19:52:11.882Z,49.80
2018-12-17T19:54:40.296Z,44.47
2018-12-17T19:57:08.484Z,59.80
2018-12-17T19:59:36.899Z,56.87
2018-12-17T20:02:05.131Z,55.27
2018-12-17T20:04:33.321Z,52.43
2018-12-17T20:07:01.524Z,45.20
2018-12-17T20:09:29.731Z,50.77
2018-12-17T20:11:57.951Z,42.37
2018-12-17T20:14:26.295Z,46.30
2018-12-17T20:16:54.643Z,43.03
2018-12-17T20:19:22.834Z,46.87
2018-12-17T20:21:51.775Z,47.00
2018-12-17T20:24:20.083Z,46.73
2018-12-17T20:26:48.396Z,50.00
2018-12-17T20:29:16.584Z,47.77
2018-12-17T20:31:44.777Z,48.93
2018-12-17T20:34:12.957Z,42.33
2018-12-17T20:36:41.186Z,50.43
2018-12-17T20:39:09.374Z,44.10
2018-12-17T20:41:37.649Z,48.60
2018-12-17T20:44:05.883Z,44.73
2018-12-17T20:46:34.056Z,43.00
2018-12-17T20:49:02.253Z,45.03
2018-12-17T20:51:30.448Z,38.37
2018-12-17T20:53:58.725Z,40.07
2018-12-17T20:56:27.037Z,44.13
2018-12-17T20:58:55.397Z,41.80
2018-12-17T21:01:23.604Z,41.50
2018-12-17T21:03:51.792Z,42.23
2018-12-17T21:06:20.015Z,42.70
2018-12-17T21:08:48.212Z,38.30
2018-12-17T21:11:16.566Z,33.27
2018-12-17T21:13:44.781Z,37.20
2018-12-17T21:16:12.968Z,32.93
2018-12-17T21:18:41.163Z,37.90
2018-12-17T21:21:09.756Z,33.27
2018-12-17T21:23:38.286Z,35.03
2018-12-17T21:26:06.499Z,40.73
2018-12-17T21:28:34.766Z,37.13
2018-12-17T21:31:02.955Z,45.23
2018-12-17T21:33:31.210Z,45.10
2018-12-17T21:35:59.441Z,53.13
2018-12-17T21:38:27.661Z,49.10
2018-12-17T21:40:55.854Z,51.70
2018-12-17T21:43:24.155Z,38.70
2018-12-17T21:45:52.435Z,39.20
2018-12-17T21:48:20.627Z,37.93
2018-12-17T21:50:49.005Z,39.90
2018-12-17T21:53:17.202Z,40.83
2018-12-17T21:55:45.386Z,46.00
2018-12-17T21:58:13.607Z,40.63
2018-12-17T22:00:41.784Z,50.90
2018-12-17T22:03:13.192Z,36.70
2018-12-17T22:05:40.205Z,47.23
2018-12-17T22:08:08.396Z,42.17
2018-12-17T22:10:36.647Z,37.80
2018-12-17T22:13:04.862Z,41.57
2018-12-17T22:15:33.057Z,47.10
2018-12-17T22:18:01.245Z,40.10
2018-12-17T22:20:29.483Z,55.83
2018-12-17T22:22:57.672Z,38.53
2018-12-17T22:25:25.860Z,41.17
2018-12-17T22:27:54.060Z,40.83
2018-12-17T22:30:22.303Z,36.87
2018-12-17T22:32:50.492Z,65.90
2018-12-17T22:35:18.700Z,56.50
2018-12-17T22:37:46.876Z,39.53
2018-12-17T22:40:15.060Z,46.90
2018-12-17T22:42:43.479Z,45.07
2018-12-17T22:45:11.659Z,46.60
2018-12-17T22:47:39.841Z,47.27
2018-12-17T22:50:08.070Z,46.57
2018-12-17T22:52:36.257Z,39.13
2018-12-17T22:55:04.590Z,54.70
2018-12-17T22:57:32.803Z,45.80
2018-12-17T23:00:01.140Z,41.87
2018-12-17T23:02:29.328Z,40.40
2018-12-17T23:04:57.520Z,38.50
2018-12-17T23:07:26.105Z,35.63
2018-12-17T23:10:12.007Z,40.53
2018-12-17T23:12:57.977Z,32.80
2018-12-17T23:15:43.871Z,36.47
2018-12-17T23:18:11.433Z,32.73
2018-12-17T23:20:41.826Z,36.60
2018-12-17T23:23:10.039Z,32.43
2018-12-17T23:25:38.217Z,41.87
2018-12-17T23:28:07.929Z,35.53
2018-12-17T23:30:36.144Z,40.70
2018-12-17T23:33:04.356Z,39.60
2018-12-17T23:35:32.542Z,41.80
2018-12-17T23:38:00.753Z,33.17
2018-12-17T23:40:29.075Z,36.40
2018-12-17T23:42:57.259Z,33.50
2018-12-17T23:45:25.477Z,34.43
2018-12-17T23:47:53.682Z,36.80
2018-12-17T23:50:21.875Z,37.10
2018-12-17T23:52:50.063Z,34.40
2018-12-17T23:55:18.261Z,36.17
2018-12-17T23:57:46.570Z,40.70
